createdAt,value
2023-07-02T00:00:17.001Z,93.25
2023-07-02T00:02:47.683Z,93.13
2023-07-02T00:05:15.272Z,92.13
2023-07-02T00:07:42.913Z,91.37
2023-07-02T00:10:11.991Z,91.35
2023-07-02T00:12:39.569Z,90.46
2023-07-02T00:15:07.418Z,89.62
2023-07-02T00:17:35.322Z,89.38
2023-07-02T00:20:10.067Z,89.82
2023-07-02T00:22:37.952Z,90.30
2023-07-02T00:25:05.584Z,90.30
2023-07-02T00:27:33.333Z,89.59
2023-07-02T00:30:01.212Z,89.84
2023-07-02T00:32:28.838Z,90.06
2023-07-02T00:34:56.410Z,90.58
2023-07-02T00:37:24.235Z,90.80
2023-07-02T00:39:51.819Z,90.73
2023-07-02T00:42:19.498Z,90.86
2023-07-02T00:44:47.515Z,91.04
2023-07-02T00:47:15.110Z,91.35
2023-07-02T00:49:42.673Z,91.82
2023-07-02T00:52:11.317Z,92.03
2023-07-02T00:54:38.829Z,92.42
2023-07-02T00:57:07.172Z,92.16
2023-07-02T00:59:36.929Z,92.22
2023-07-02T01:02:06.341Z,92.05
2023-07-02T01:04:34.239Z,92.10
2023-07-02T01:07:02.676Z,91.97
2023-07-02T01:09:30.253Z,92.15
2023-07-02T01:12:05.064Z,92.69
2023-07-02T01:14:45.106Z,92.24
2023-07-02T01:17:13.051Z,92.70
2023-07-02T01:19:54.407Z,92.89
2023-07-02T01:22:24.267Z,92.71
2023-07-02T01:24:52.720Z,92.68
2023-07-02T01:27:21.633Z,92.21
2023-07-02T01:29:53.439Z,92.62
2023-07-02T01:32:22.111Z,93.00
2023-07-02T01:34:54.512Z,93.36
2023-07-02T01:37:22.884Z,93.53
2023-07-02T01:39:50.562Z,93.49
2023-07-02T01:42:20.330Z,93.73
2023-07-02T01:44:50.703Z,93.90
2023-07-02T01:47:19.032Z,93.75
2023-07-02T01:49:46.893Z,93.64
2023-07-02T01:52:14.830Z,94.36
2023-07-02T01:54:42.544Z,94.45
2023-07-02T01:57:10.451Z,94.85
2023-07-02T01:59:39.046Z,94.81
2023-07-02T02:02:06.566Z,94.65
2023-07-02T02:04:37.305Z,94.46
2023-07-02T02:07:04.880Z,94.21
2023-07-02T02:09:33.729Z,94.46
2023-07-02T02:12:01.790Z,94.38
2023-07-02T02:14:29.350Z,94.23
2023-07-02T02:16:58.556Z,94.41
2023-07-02T02:19:26.348Z,94.31
2023-07-02T02:21:54.058Z,94.61
2023-07-02T02:24:21.936Z,95.03
2023-07-02T02:26:49.503Z,95.03
2023-07-02T02:29:17.087Z,95.50
2023-07-02T02:31:45.705Z,95.91
2023-07-02T02:34:13.663Z,95.70
2023-07-02T02:36:41.640Z,95.92
2023-07-02T02:39:09.528Z,96.17
2023-07-02T02:41:37.161Z,96.18
2023-07-02T02:44:04.950Z,95.85
2023-07-02T02:46:32.841Z,95.93
2023-07-02T02:49:00.407Z,95.96
2023-07-02T02:51:28.019Z,95.61
2023-07-02T02:53:55.875Z,96.05
2023-07-02T02:56:23.464Z,95.92
2023-07-02T02:58:51.021Z,95.70
2023-07-02T03:01:19.140Z,95.85
2023-07-02T03:03:47.166Z,95.77
2023-07-02T03:06:16.545Z,95.69
2023-07-02T03:08:44.684Z,95.92
2023-07-02T03:11:12.233Z,95.92
2023-07-02T03:13:39.889Z,95.96
2023-07-02T03:16:08.084Z,95.73
2023-07-02T03:18:36.386Z,95.80
2023-07-02T03:21:03.938Z,95.80
2023-07-02T03:23:31.795Z,95.59
2023-07-02T03:25:59.337Z,95.55
2023-07-02T03:28:26.907Z,95.64
2023-07-02T03:30:54.790Z,95.42
2023-07-02T03:33:22.386Z,95.46
2023-07-02T03:35:49.995Z,95.79
2023-07-02T03:38:17.920Z,95.93
2023-07-02T03:40:45.823Z,96.17
2023-07-02T03:43:13.715Z,96.03
2023-07-02T03:45:41.523Z,95.92
2023-07-02T03:48:09.123Z,95.93
2023-07-02T03:50:36.764Z,95.52
2023-07-02T03:53:04.883Z,95.05
2023-07-02T03:55:32.437Z,94.96
2023-07-02T03:57:59.966Z,94.57
2023-07-02T04:00:27.848Z,94.83
2023-07-02T04:02:55.850Z,95.05
2023-07-02T04:05:23.528Z,94.84
2023-07-02T04:07:51.126Z,94.61
2023-07-02T04:10:19.039Z,94.85
2023-07-02T04:12:46.618Z,94.38
2023-07-02T04:15:14.154Z,94.33
2023-07-02T04:17:42.039Z,93.66
2023-07-02T04:20:11.280Z,93.74
2023-07-02T04:22:39.266Z,92.96
2023-07-02T04:25:17.440Z,92.90
2023-07-02T04:27:52.201Z,92.35
2023-07-02T04:30:20.277Z,92.06
2023-07-02T04:32:48.367Z,91.91
2023-07-02T04:35:15.977Z,91.54
2023-07-02T04:37:44.180Z,91.04
2023-07-02T04:40:12.134Z,91.00
2023-07-02T04:42:40.571Z,90.93
2023-07-02T04:45:09.632Z,90.16
2023-07-02T04:47:37.385Z,90.24
2023-07-02T04:50:07.001Z,90.18
2023-07-02T04:52:35.046Z,90.01
2023-07-02T04:55:04.289Z,89.55
2023-07-02T04:57:32.206Z,89.43
2023-07-02T05:00:00.045Z,89.49
2023-07-02T05:02:27.743Z,89.32
2023-07-02T05:04:55.566Z,89.16
2023-07-02T05:07:23.622Z,88.68
2023-07-02T05:09:53.454Z,88.35
2023-07-02T05:12:21.128Z,88.01
2023-07-02T05:14:48.991Z,87.33
2023-07-02T05:17:16.530Z,86.63
2023-07-02T05:19:44.124Z,86.67
2023-07-02T05:22:11.973Z,86.37
2023-07-02T05:24:41.772Z,86.09
2023-07-02T05:27:09.305Z,85.85
2023-07-02T05:29:37.170Z,85.81
2023-07-02T05:32:05.115Z,85.52
2023-07-02T05:34:33.729Z,85.24
2023-07-02T05:37:01.816Z,85.32
2023-07-02T05:39:29.444Z,84.86
2023-07-02T05:41:57.682Z,84.53
2023-07-02T05:44:25.496Z,83.93
2023-07-02T05:46:53.069Z,84.10
2023-07-02T05:49:20.626Z,83.52
2023-07-02T05:51:48.655Z,83.13
2023-07-02T05:54:16.180Z,83.01
2023-07-02T05:56:43.861Z,82.68
2023-07-02T05:59:12.539Z,81.92
2023-07-02T06:01:40.119Z,81.75
2023-07-02T06:04:08.123Z,81.18
2023-07-02T06:06:35.758Z,80.54
2023-07-02T06:09:04.080Z,80.37
2023-07-02T06:11:31.900Z,78.74
2023-07-02T06:13:59.527Z,78.01
2023-07-02T06:16:27.974Z,77.13
2023-07-02T06:18:56.022Z,76.82
2023-07-02T06:21:24.537Z,76.02
2023-07-02T06:23:52.103Z,74.75
2023-07-02T06:26:19.990Z,73.98
2023-07-02T06:28:47.634Z,73.00
2023-07-02T06:31:15.233Z,71.88
2023-07-02T06:33:43.346Z,70.20
2023-07-02T06:36:13.313Z,69.83
2023-07-02T06:38:41.958Z,69.03
2023-07-02T06:41:09.986Z,67.83
2023-07-02T06:43:37.711Z,67.29
2023-07-02T06:46:05.395Z,66.69
2023-07-02T06:48:34.057Z,65.58
2023-07-02T06:51:01.699Z,65.87
2023-07-02T06:53:29.311Z,64.31
2023-07-02T06:55:57.187Z,63.62
2023-07-02T06:58:24.809Z,63.59
2023-07-02T07:00:52.688Z,63.10
2023-07-02T07:03:20.680Z,62.53
2023-07-02T07:05:48.356Z,61.49
2023-07-02T07:08:15.913Z,61.44
2023-07-02T07:10:43.798Z,60.17
2023-07-02T07:13:11.956Z,61.00
2023-07-02T07:15:40.228Z,62.04
2023-07-02T07:18:10.075Z,61.50
2023-07-02T07:20:39.825Z,61.49
2023-07-02T07:23:07.373Z,61.02
2023-07-02T07:25:35.164Z,60.00
2023-07-02T07:28:02.749Z,59.80
2023-07-02T07:30:32.623Z,59.44
2023-07-02T07:33:01.460Z,59.93
2023-07-02T07:35:29.110Z,57.98
2023-07-02T07:37:56.763Z,57.71
2023-07-02T07:40:24.675Z,57.27
2023-07-02T07:42:52.203Z,56.26
2023-07-02T07:45:19.715Z,56.57
2023-07-02T07:47:47.780Z,55.50
2023-07-02T07:50:15.371Z,53.67
2023-07-02T07:52:44.132Z,52.33
2023-07-02T07:55:12.114Z,52.73
2023-07-02T07:57:39.837Z,53.06
2023-07-02T08:00:13.825Z,53.03
2023-07-02T08:02:45.055Z,52.41
2023-07-02T08:05:12.905Z,51.32
2023-07-02T08:07:43.844Z,50.94
2023-07-02T08:10:11.679Z,50.99
2023-07-02T08:12:39.641Z,50.68
2023-07-02T08:15:07.788Z,50.51
2023-07-02T08:17:35.752Z,50.57
2023-07-02T08:20:05.534Z,51.54
2023-07-02T08:22:33.119Z,50.77
2023-07-02T08:25:00.649Z,51.98
2023-07-02T08:27:28.532Z,52.70
2023-07-02T08:29:56.127Z,52.71
2023-07-02T08:32:24.803Z,52.97
2023-07-02T08:34:53.695Z,52.54
2023-07-02T08:37:22.077Z,53.21
2023-07-02T08:39:52.622Z,53.24
2023-07-02T08:42:20.832Z,53.62
2023-07-02T08:44:49.197Z,54.22
2023-07-02T08:47:17.010Z,54.34
2023-07-02T08:49:49.725Z,54.61
2023-07-02T08:52:17.430Z,54.64
2023-07-02T08:54:45.307Z,54.80
2023-07-02T08:57:12.825Z,54.56
2023-07-02T08:59:40.426Z,54.48
2023-07-02T09:02:08.315Z,54.58
2023-07-02T09:04:35.995Z,54.85
2023-07-02T09:07:07.854Z,54.89
2023-07-02T09:09:49.240Z,55.19
2023-07-02T09:12:27.238Z,55.91
2023-07-02T09:15:07.615Z,56.17
2023-07-02T09:17:37.619Z,55.96
2023-07-02T09:20:10.094Z,55.88
2023-07-02T09:22:38.524Z,56.68
2023-07-02T09:25:06.724Z,56.59
2023-07-02T09:27:43.151Z,57.28
2023-07-02T09:30:19.320Z,56.68
2023-07-02T09:32:47.556Z,57.02
2023-07-02T09:35:15.806Z,56.88
2023-07-02T09:37:45.144Z,56.28
2023-07-02T09:40:13.612Z,56.56
2023-07-02T09:42:43.632Z,55.90
2023-07-02T09:45:12.092Z,56.57
2023-07-02T09:47:47.613Z,57.00
2023-07-02T09:50:17.301Z,55.75
2023-07-02T09:52:47.399Z,56.26
2023-07-02T09:55:16.264Z,54.83
2023-07-02T09:57:47.540Z,54.87
2023-07-02T10:00:16.553Z,54.93
2023-07-02T10:02:50.670Z,54.04
2023-07-02T10:05:47.479Z,52.54
2023-07-02T10:08:22.692Z,53.04
2023-07-02T10:10:50.803Z,53.15
2023-07-02T10:13:29.261Z,53.58
2023-07-02T10:16:06.824Z,53.68
2023-07-02T10:18:35.645Z,52.84
2023-07-02T10:21:15.918Z,51.74
2023-07-02T10:23:43.862Z,51.53
2023-07-02T10:26:18.389Z,50.17
2023-07-02T10:29:00.176Z,50.00
2023-07-02T10:31:27.875Z,51.42
2023-07-02T10:33:56.508Z,50.91
2023-07-02T10:36:25.856Z,48.99
2023-07-02T10:38:53.536Z,49.11
2023-07-02T10:41:30.638Z,49.05
2023-07-02T10:44:18.447Z,48.99
2023-07-02T10:46:50.392Z,49.54
2023-07-02T10:49:19.303Z,48.02
2023-07-02T10:51:58.374Z,50.40
2023-07-02T10:54:25.929Z,47.89
2023-07-02T10:56:59.982Z,45.27
2023-07-02T10:59:27.518Z,45.32
2023-07-02T11:01:57.056Z,45.91
2023-07-02T11:04:25.057Z,45.86
2023-07-02T11:06:52.679Z,45.65
2023-07-02T11:09:22.016Z,44.89
2023-07-02T11:11:57.401Z,45.58
2023-07-02T11:14:35.419Z,45.24
2023-07-02T11:17:07.727Z,44.52
2023-07-02T11:19:36.373Z,44.50
2023-07-02T11:22:04.319Z,43.25
2023-07-02T11:24:36.707Z,43.67
2023-07-02T11:27:08.482Z,43.79
2023-07-02T11:29:37.178Z,42.73
2023-07-02T11:32:12.630Z,41.76
2023-07-02T11:34:41.097Z,42.39
2023-07-02T11:37:09.034Z,42.42
2023-07-02T11:39:36.592Z,40.08
2023-07-02T11:42:04.284Z,39.33
2023-07-02T11:44:32.132Z,40.29
2023-07-02T11:46:59.818Z,39.98
2023-07-02T11:49:27.463Z,40.03
2023-07-02T11:51:55.401Z,39.72
2023-07-02T11:54:23.024Z,40.69
2023-07-02T11:56:50.665Z,41.17
2023-07-02T11:59:19.307Z,41.52
2023-07-02T12:01:46.913Z,42.22
2023-07-02T12:04:15.511Z,42.54
2023-07-02T12:06:43.205Z,42.47
2023-07-02T12:09:11.167Z,43.02
2023-07-02T12:11:39.996Z,43.02
2023-07-02T12:14:07.547Z,42.68
2023-07-02T12:16:35.170Z,42.41
2023-07-02T12:19:03.092Z,43.00
2023-07-02T12:21:30.621Z,43.99
2023-07-02T12:23:58.183Z,43.21
2023-07-02T12:26:26.100Z,43.55
2023-07-02T12:28:53.646Z,43.08
2023-07-02T12:31:21.235Z,44.03
2023-07-02T12:33:49.125Z,42.83
2023-07-02T12:36:16.683Z,43.38
2023-07-02T12:38:44.294Z,42.00
2023-07-02T12:41:12.142Z,41.93
2023-07-02T12:43:39.713Z,41.41
2023-07-02T12:46:08.112Z,41.66
2023-07-02T12:48:36.046Z,41.49
2023-07-02T12:51:03.790Z,41.75
2023-07-02T12:53:31.403Z,41.33
2023-07-02T12:55:59.235Z,41.90
2023-07-02T12:58:26.747Z,41.51
2023-07-02T13:00:56.227Z,41.89
2023-07-02T13:03:27.143Z,42.05
2023-07-02T13:05:54.801Z,41.76
2023-07-02T13:08:22.608Z,42.06
2023-07-02T13:10:50.486Z,41.32
2023-07-02T13:13:23.257Z,41.49
2023-07-02T13:15:52.219Z,41.78
2023-07-02T13:18:21.453Z,41.92
2023-07-02T13:20:49.026Z,41.22
2023-07-02T13:23:16.876Z,41.17
2023-07-02T13:25:44.389Z,41.88
2023-07-02T13:28:11.988Z,41.43
2023-07-02T13:30:39.862Z,41.79
2023-07-02T13:33:07.432Z,41.59
2023-07-02T13:35:35.118Z,41.06
2023-07-02T13:38:05.185Z,40.59
2023-07-02T13:40:32.808Z,40.67
2023-07-02T13:43:00.379Z,39.89
2023-07-02T13:45:28.189Z,40.50
2023-07-02T13:47:55.771Z,40.47
2023-07-02T13:50:23.398Z,40.06
2023-07-02T13:52:51.270Z,40.35
2023-07-02T13:55:18.875Z,41.02
2023-07-02T13:57:46.454Z,40.57
2023-07-02T14:00:14.823Z,40.15
2023-07-02T14:02:42.765Z,40.68
2023-07-02T14:05:10.597Z,38.82
2023-07-02T14:07:38.132Z,39.32
2023-07-02T14:10:06.598Z,38.93
2023-07-02T14:12:34.119Z,39.63
2023-07-02T14:15:01.704Z,39.97
2023-07-02T14:17:29.571Z,39.38
2023-07-02T14:19:57.124Z,39.77
2023-07-02T14:22:24.889Z,39.74
2023-07-02T14:24:52.814Z,39.76
2023-07-02T14:27:20.364Z,40.12
2023-07-02T14:29:48.674Z,40.00
2023-07-02T14:32:17.316Z,40.39
2023-07-02T14:34:45.164Z,40.56
2023-07-02T14:37:12.973Z,40.25
2023-07-02T14:39:43.760Z,40.06
2023-07-02T14:42:15.672Z,39.96
2023-07-02T14:44:43.551Z,39.94
2023-07-02T14:47:11.129Z,40.64
2023-07-02T14:49:38.859Z,41.33
2023-07-02T14:52:07.123Z,41.12
2023-07-02T14:54:35.398Z,40.17
2023-07-02T14:57:03.038Z,40.78
2023-07-02T14:59:30.927Z,41.20
2023-07-02T15:01:58.505Z,40.69
2023-07-02T15:04:26.238Z,41.52
2023-07-02T15:06:54.173Z,42.27
2023-07-02T15:09:21.828Z,41.65
2023-07-02T15:11:49.426Z,41.83
2023-07-02T15:14:17.295Z,41.36
2023-07-02T15:16:44.918Z,42.07
2023-07-02T15:19:13.848Z,41.85
2023-07-02T15:21:41.674Z,42.05
2023-07-02T15:24:11.356Z,42.39
2023-07-02T15:26:40.087Z,42.65
2023-07-02T15:29:08.041Z,42.94
2023-07-02T15:31:37.663Z,42.38
2023-07-02T15:34:05.292Z,43.04
2023-07-02T15:36:36.826Z,42.79
2023-07-02T15:39:04.984Z,43.43
2023-07-02T15:41:33.189Z,42.78
2023-07-02T15:44:04.374Z,43.29
2023-07-02T15:46:32.218Z,43.19
2023-07-02T15:49:03.477Z,43.77
2023-07-02T15:51:37.797Z,43.18
2023-07-02T15:54:07.910Z,44.14
2023-07-02T15:56:36.130Z,43.87
2023-07-02T15:59:06.489Z,43.23
2023-07-02T16:01:35.702Z,44.24
2023-07-02T16:04:05.619Z,43.24
2023-07-02T16:06:35.297Z,43.25
2023-07-02T16:09:05.266Z,43.34
2023-07-02T16:11:35.684Z,44.22
2023-07-02T16:14:08.932Z,43.70
2023-07-02T16:16:38.921Z,44.01
2023-07-02T16:19:08.445Z,44.96
2023-07-02T16:21:38.192Z,43.57
2023-07-02T16:24:06.036Z,43.86
2023-07-02T16:26:33.948Z,44.54
2023-07-02T16:29:01.569Z,44.99
2023-07-02T16:31:29.189Z,45.08
2023-07-02T16:33:57.065Z,45.51
2023-07-02T16:36:24.586Z,45.10
2023-07-02T16:38:52.165Z,44.54
2023-07-02T16:41:20.108Z,45.26
2023-07-02T16:43:47.728Z,45.66
2023-07-02T16:46:15.373Z,45.47
2023-07-02T16:48:43.335Z,44.63
2023-07-02T16:51:10.873Z,44.97
2023-07-02T16:53:38.508Z,45.26
2023-07-02T16:56:08.132Z,44.80
2023-07-02T16:58:35.723Z,45.32
2023-07-02T17:01:08.999Z,44.73
2023-07-02T17:03:37.181Z,44.82
2023-07-02T17:06:06.979Z,45.38
2023-07-02T17:08:37.639Z,45.54
2023-07-02T17:11:07.154Z,45.37
2023-07-02T17:13:35.258Z,45.89
2023-07-02T17:16:05.062Z,46.36
2023-07-02T17:18:34.323Z,46.09
2023-07-02T17:21:02.155Z,46.82
2023-07-02T17:23:29.829Z,46.66
2023-07-02T17:26:07.526Z,46.82
2023-07-02T17:28:35.398Z,47.04
2023-07-02T17:31:03.642Z,47.53
2023-07-02T17:33:31.319Z,48.00
2023-07-02T17:35:58.901Z,47.89
2023-07-02T17:38:26.802Z,48.26
2023-07-02T17:40:54.335Z,48.80
2023-07-02T17:43:22.013Z,49.23
2023-07-02T17:45:54.712Z,49.97
2023-07-02T17:48:25.000Z,50.48
2023-07-02T17:51:00.502Z,50.57
2023-07-02T17:53:30.370Z,51.04
2023-07-02T17:55:58.365Z,51.31
2023-07-02T17:58:25.957Z,51.76
2023-07-02T18:00:53.750Z,53.14
2023-07-02T18:03:23.040Z,53.67
2023-07-02T18:05:51.210Z,54.27
2023-07-02T18:08:19.247Z,55.47
2023-07-02T18:10:51.230Z,55.95
2023-07-02T18:13:21.358Z,56.28
2023-07-02T18:15:51.979Z,56.78
2023-07-02T18:18:21.370Z,57.16
2023-07-02T18:20:50.627Z,57.36
2023-07-02T18:23:19.059Z,56.97
2023-07-02T18:25:46.749Z,57.32
2023-07-02T18:28:17.900Z,58.17
2023-07-02T18:30:47.172Z,59.18
2023-07-02T18:33:15.950Z,59.61
2023-07-02T18:35:43.707Z,60.22
2023-07-02T18:38:11.240Z,60.24
2023-07-02T18:40:39.766Z,60.26
2023-07-02T18:43:08.042Z,60.42
2023-07-02T18:45:35.804Z,59.79
2023-07-02T18:48:04.760Z,60.17
2023-07-02T18:50:32.488Z,60.42
2023-07-02T18:53:00.764Z,61.00
2023-07-02T18:55:28.672Z,60.93
2023-07-02T18:57:56.287Z,62.34
2023-07-02T19:00:23.908Z,62.24
2023-07-02T19:02:51.859Z,62.02
2023-07-02T19:05:20.950Z,61.06
2023-07-02T19:07:49.507Z,61.08
2023-07-02T19:10:17.584Z,60.82
2023-07-02T19:12:47.100Z,60.80
2023-07-02T19:15:14.671Z,61.13
2023-07-02T19:17:44.945Z,62.18
2023-07-02T19:20:13.057Z,62.03
2023-07-02T19:22:40.606Z,63.10
2023-07-02T19:25:11.587Z,63.71
2023-07-02T19:27:41.066Z,64.53
2023-07-02T19:30:09.502Z,64.60
2023-07-02T19:32:38.299Z,64.78
2023-07-02T19:35:08.102Z,64.58
2023-07-02T19:37:36.691Z,65.03
2023-07-02T19:40:06.128Z,65.07
2023-07-02T19:42:33.970Z,65.51
2023-07-02T19:45:02.249Z,64.67
2023-07-02T19:47:31.410Z,64.78
2023-07-02T19:50:00.814Z,65.10
2023-07-02T19:55:01.168Z,65.10
2023-07-02T19:57:28.970Z,65.79
2023-07-02T19:59:56.729Z,66.18
2023-07-02T20:02:24.506Z,66.58
2023-07-02T20:05:01.734Z,67.78
2023-07-02T20:07:29.824Z,67.40
2023-07-02T20:09:57.938Z,67.07
2023-07-02T20:12:29.503Z,67.15
2023-07-02T20:14:58.850Z,67.28
2023-07-02T20:17:29.660Z,67.37
2023-07-02T20:19:59.879Z,67.62
2023-07-02T20:22:28.188Z,66.76
2023-07-02T20:25:03.885Z,66.83
2023-07-02T20:27:36.004Z,67.60
2023-07-02T20:30:04.152Z,67.44
2023-07-02T20:32:31.812Z,68.53
2023-07-02T20:34:59.829Z,68.59
2023-07-02T20:37:27.711Z,68.00
2023-07-02T20:39:55.406Z,66.81
2023-07-02T20:42:23.280Z,65.94
2023-07-02T20:44:51.204Z,66.41
2023-07-02T20:47:22.308Z,65.31
2023-07-02T20:49:51.335Z,63.98
2023-07-02T20:52:25.138Z,63.71
2023-07-02T20:54:54.599Z,63.78
2023-07-02T20:57:23.277Z,63.01
2023-07-02T20:59:51.723Z,63.11
2023-07-02T21:02:20.704Z,63.10
2023-07-02T21:04:50.171Z,62.37
2023-07-02T21:07:17.857Z,61.94
2023-07-02T21:09:45.762Z,61.58
2023-07-02T21:12:13.358Z,61.16
2023-07-02T21:14:40.968Z,60.24
2023-07-02T21:17:11.806Z,60.26
2023-07-02T21:19:39.368Z,60.68
2023-07-02T21:22:06.909Z,59.68
2023-07-02T21:24:35.716Z,59.51
2023-07-02T21:27:03.724Z,59.24
2023-07-02T21:29:31.596Z,59.24
2023-07-02T21:31:59.510Z,59.13
2023-07-02T21:34:27.069Z,59.06
2023-07-02T21:36:54.669Z,59.46
2023-07-02T21:39:22.541Z,59.06
2023-07-02T21:41:50.116Z,59.06
2023-07-02T21:44:19.390Z,59.10
2023-07-02T21:46:47.348Z,59.02
2023-07-02T21:49:14.991Z,58.98
2023-07-02T21:51:42.536Z,58.73
2023-07-02T21:54:10.360Z,58.52
2023-07-02T21:56:38.296Z,58.24
2023-07-02T21:59:05.837Z,58.52
2023-07-02T22:01:33.756Z,58.15
2023-07-02T22:04:01.613Z,58.36
2023-07-02T22:06:29.121Z,58.41
2023-07-02T22:08:56.687Z,58.62
2023-07-02T22:11:26.007Z,58.13
2023-07-02T22:13:53.618Z,58.44
2023-07-02T22:16:21.297Z,58.15
2023-07-02T22:18:49.241Z,57.95
2023-07-02T22:21:17.873Z,57.62
2023-07-02T22:23:49.186Z,57.83
2023-07-02T22:26:17.151Z,57.91
2023-07-02T22:28:44.833Z,57.76
2023-07-02T22:31:12.408Z,57.79
2023-07-02T22:33:40.390Z,58.08
2023-07-02T22:36:08.905Z,57.75
2023-07-02T22:38:36.829Z,57.46
2023-07-02T22:41:04.653Z,57.41
2023-07-02T22:43:32.168Z,58.02
2023-07-02T22:45:59.756Z,57.48
2023-07-02T22:48:27.637Z,56.94
2023-07-02T22:50:56.318Z,56.94
2023-07-02T22:53:25.203Z,57.90
2023-07-02T22:55:53.184Z,57.40
2023-07-02T22:58:20.929Z,56.76
2023-07-02T23:00:48.447Z,56.94
2023-07-02T23:03:16.403Z,56.93
2023-07-02T23:05:44.082Z,57.13
2023-07-02T23:08:13.188Z,56.56
2023-07-02T23:10:40.985Z,56.73
2023-07-02T23:13:08.666Z,56.48
2023-07-02T23:15:36.276Z,56.20
2023-07-02T23:18:04.167Z,56.58
2023-07-02T23:20:31.719Z,56.16
2023-07-02T23:23:02.795Z,56.62
2023-07-02T23:25:31.311Z,55.32
2023-07-02T23:28:04.195Z,56.06
2023-07-02T23:30:35.155Z,56.12
2023-07-02T23:33:11.045Z,55.25
2023-07-02T23:35:40.036Z,55.89
2023-07-02T23:38:08.738Z,55.84
2023-07-02T23:40:37.015Z,55.83
2023-07-02T23:43:05.341Z,55.82
2023-07-02T23:45:33.017Z,55.81
2023-07-02T23:48:00.625Z,56.04
2023-07-02T23:50:28.604Z,55.90
2023-07-02T23:52:56.298Z,56.32
2023-07-02T23:55:23.880Z,56.54
2023-07-02T23:57:51.804Z,56.20
